Time;durP1;ratioP1;P1;durP2;ratioP2;P2;SDS_P1;SDS_P2;PMS_P1;PMS_P2;Temp;Humidity;BMP_temperature;BMP_pressure;BME280_temperature;BME280_humidity;BME280_pressure;Samples;Min_cycle;Max_cycle;Signal;HPM_P1;HPM_P2
2022/05/06 00:01:43;;;;;;;39.33;19.15;;;9.10;99.90;;;;;;5064509;28;20091;-79
2022/05/06 00:04:10;;;;;;;37.83;20.40;;;9.10;99.90;;;;;;5064872;28;20046;-79
2022/05/06 00:06:36;;;;;;;32.65;19.25;;;9.60;99.90;;;;;;5065530;28;20041;-79
2022/05/06 00:09:02;;;;;;;31.30;18.63;;;9.10;99.90;;;;;;5064616;28;20037;-79
2022/05/06 00:11:27;;;;;;;39.90;21.10;;;9.10;99.90;;;;;;5048062;28;20503;-79
2022/05/06 00:13:53;;;;;;;45.13;22.60;;;10.20;99.90;;;;;;5046664;28;20066;-79
2022/05/06 00:16:20;;;;;;;38.40;21.45;;;9.10;99.90;;;;;;5064519;28;20216;-79
2022/05/06 00:18:45;;;;;;;33.35;18.25;;;9.10;99.90;;;;;;5063585;28;20049;-79
2022/05/06 00:21:12;;;;;;;38.70;20.50;;;9.10;99.90;;;;;;5064235;28;20067;-79
2022/05/06 00:23:37;;;;;;;44.67;21.52;;;9.00;99.90;;;;;;5065698;28;20040;-79
2022/05/06 00:26:03;;;;;;;34.50;18.75;;;9.70;99.90;;;;;;5046138;28;20044;-79
2022/05/06 00:28:30;;;;;;;37.22;20.38;;;9.00;99.90;;;;;;5064347;28;20090;-79
2022/05/06 00:30:56;;;;;;;34.58;19.50;;;9.00;99.90;;;;;;5063030;28;20055;-79
2022/05/06 00:33:24;;;;;;;41.03;21.73;;;8.90;99.90;;;;;;5065442;28;20040;-79
2022/05/06 00:35:57;;;;;;;36.17;21.42;;;8.90;99.90;;;;;;5063332;28;20052;-79
2022/05/06 00:38:24;;;;;;;32.10;18.48;;;8.90;99.90;;;;;;5063393;28;20041;-79
2022/05/06 00:40:51;;;;;;;34.15;19.65;;;8.90;99.90;;;;;;5063945;28;20067;-79
2022/05/06 00:43:17;;;;;;;36.40;19.65;;;10.00;99.90;;;;;;5063019;28;20532;-79
2022/05/06 00:45:48;;;;;;;35.63;21.08;;;8.80;99.90;;;;;;5047524;28;20076;-79
2022/05/06 00:48:15;;;;;;;36.22;18.65;;;8.80;99.90;;;;;;5046183;28;20044;-79
2022/05/06 00:50:43;;;;;;;40.85;21.13;;;8.70;99.90;;;;;;5064459;28;20048;-79
2022/05/06 00:53:09;;;;;;;38.17;19.63;;;8.70;99.90;;;;;;5066119;28;20041;-79
2022/05/06 00:55:36;;;;;;;34.83;20.45;;;9.90;99.90;;;;;;5066489;28;20048;-79
2022/05/06 00:58:03;;;;;;;34.45;18.42;;;8.60;99.90;;;;;;5067716;28;20051;-79
2022/05/06 01:00:29;;;;;;;36.00;18.98;;;8.60;99.90;;;;;;5065856;28;20086;-79
2022/05/06 01:02:55;;;;;;;31.88;17.50;;;9.70;99.90;;;;;;5067397;28;20488;-79
2022/05/06 01:05:24;;;;;;;32.95;18.55;;;9.40;99.90;;;;;;5066791;28;20052;-79
2022/05/06 01:07:51;;;;;;;35.05;20.33;;;8.50;99.90;;;;;;5050603;28;20051;-79
2022/05/06 01:10:18;;;;;;;31.80;18.60;;;8.50;99.90;;;;;;5050075;28;20123;-79
2022/05/06 01:12:44;;;;;;;37.15;18.67;;;8.50;99.90;;;;;;5034194;28;20565;-79
2022/05/06 01:15:26;;;;;;;37.50;19.10;;;8.50;99.90;;;;;;5068502;28;20048;-79
2022/05/06 01:17:53;;;;;;;37.63;19.88;;;8.40;99.90;;;;;;5066165;28;20503;-79
2022/05/06 01:20:20;;;;;;;31.02;18.42;;;8.40;99.90;;;;;;5050072;28;20118;-79
2022/05/06 01:22:52;;;;;;;38.55;19.50;;;8.40;99.90;;;;;;5066011;28;20048;-79
2022/05/06 01:25:18;;;;;;;38.40;18.63;;;8.40;99.90;;;;;;5049911;28;20078;-79
2022/05/06 01:28:04;;;;;;;33.03;18.40;;;9.30;99.90;;;;;;5066101;28;20123;-79
2022/05/06 01:30:37;;;;;;;31.13;18.05;;;8.30;99.90;;;;;;5048571;28;20044;-79
2022/05/06 01:33:05;;;;;;;31.42;18.20;;;9.30;99.90;;;;;;5067347;28;20597;-79
2022/05/06 01:35:36;;;;;;;36.85;19.08;;;8.20;99.90;;;;;;5049045;28;20163;-79
2022/05/06 01:38:06;;;;;;;32.00;17.75;;;9.30;99.90;;;;;;5066671;28;20044;-79
2022/05/06 01:40:50;;;;;;;31.95;18.35;;;8.10;99.90;;;;;;5066931;28;20040;-79
2022/05/06 01:43:18;;;;;;;36.72;20.33;;;8.10;99.90;;;;;;5049164;28;20051;-79
2022/05/06 01:45:47;;;;;;;38.90;18.83;;;8.10;99.90;;;;;;5068337;28;20036;-79
2022/05/06 01:48:16;;;;;;;32.40;18.10;;;8.10;99.90;;;;;;5065728;28;20055;-79
2022/05/06 01:50:43;;;;;;;39.55;19.67;;;8.10;99.90;;;;;;5066328;28;20047;-78
2022/05/06 01:53:09;;;;;;;33.53;17.98;;;8.10;99.90;;;;;;5065614;28;20125;-79
2022/05/06 01:55:36;;;;;;;38.25;19.08;;;8.50;99.90;;;;;;5065572;28;20048;-79
2022/05/06 01:58:04;;;;;;;34.10;18.83;;;8.10;99.90;;;;;;5066777;28;20108;-79
2022/05/06 02:00:29;;;;;;;36.03;19.35;;;8.10;99.90;;;;;;5048601;28;20052;-79
2022/05/06 02:02:56;;;;;;;37.92;19.70;;;8.10;99.90;;;;;;5065692;28;20724;-79
2022/05/06 02:05:24;;;;;;;29.60;17.85;;;8.00;99.90;;;;;;5065367;28;20040;-79
2022/05/06 02:07:53;;;;;;;31.70;18.25;;;8.00;99.90;;;;;;5049471;28;20086;-79
2022/05/06 02:10:20;;;;;;;32.97;17.05;;;8.00;99.90;;;;;;5066040;28;20044;-79
2022/05/06 02:12:47;;;;;;;33.10;18.63;;;8.00;99.90;;;;;;5048738;28;20048;-79
2022/05/06 02:15:14;;;;;;;35.53;18.38;;;7.90;99.90;;;;;;5049365;28;20447;-79
2022/05/06 02:17:41;;;;;;;41.20;18.63;;;7.90;99.90;;;;;;5064730;28;20044;-79
2022/05/06 02:20:08;;;;;;;32.53;18.98;;;7.90;99.90;;;;;;5049348;28;20525;-79
2022/05/06 02:22:36;;;;;;;34.97;17.73;;;7.90;99.90;;;;;;5065045;28;20037;-79
2022/05/06 02:25:04;;;;;;;34.38;18.80;;;8.70;99.90;;;;;;5065122;28;20055;-80
2022/05/06 02:27:31;;;;;;;35.22;18.02;;;7.90;99.90;;;;;;5048711;28;20045;-79
2022/05/06 02:35:28;;;;;;;30.83;17.00;;;9.00;99.90;;;;;;5050754;28;20118;-79
2022/05/06 02:37:54;;;;;;;33.28;17.95;;;7.80;99.90;;;;;;5049030;28;20087;-79
2022/05/06 02:40:20;;;;;;;34.10;18.10;;;9.10;99.90;;;;;;5065402;28;20053;-79
2022/05/06 02:42:45;;;;;;;37.58;17.50;;;7.80;99.90;;;;;;5064674;28;20453;-79
2022/05/06 02:45:11;;;;;;;32.35;16.70;;;7.80;99.90;;;;;;5032257;28;20503;-79
2022/05/06 02:47:37;;;;;;;28.27;16.52;;;7.80;99.90;;;;;;5064059;28;20075;-80
2022/05/06 02:50:04;;;;;;;31.00;15.52;;;7.80;99.90;;;;;;5066523;28;20060;-79
2022/05/06 02:52:30;;;;;;;30.98;14.82;;;7.80;99.90;;;;;;5063944;28;20059;-79
2022/05/06 02:54:56;;;;;;;24.63;15.77;;;7.80;99.90;;;;;;5064455;28;20057;-79
2022/05/06 02:57:21;;;;;;;31.05;16.75;;;7.90;99.90;;;;;;5064594;28;20170;-80
2022/05/06 02:59:47;;;;;;;32.08;17.30;;;7.70;99.90;;;;;;5065252;28;20430;-79
2022/05/06 03:02:13;;;;;;;29.60;17.00;;;7.70;99.90;;;;;;5065260;28;20127;-79
2022/05/06 03:04:39;;;;;;;39.20;18.02;;;7.70;99.90;;;;;;5031180;28;20044;-79
2022/05/06 03:07:07;;;;;;;29.40;14.88;;;8.50;99.90;;;;;;5065652;28;20170;-79
2022/05/06 03:09:33;;;;;;;31.38;16.25;;;7.70;99.90;;;;;;5031771;28;20041;-79
2022/05/06 03:11:59;;;;;;;29.88;16.48;;;7.70;99.90;;;;;;5065882;28;20125;-79
2022/05/06 03:14:25;;;;;;;33.78;15.75;;;9.10;99.90;;;;;;5064503;28;20080;-79
2022/05/06 03:16:51;;;;;;;38.72;18.23;;;7.70;99.90;;;;;;5047703;28;20047;-79
2022/05/06 03:19:17;;;;;;;44.17;21.38;;;7.70;99.90;;;;;;5065252;28;20164;-79
2022/05/06 03:21:46;;;;;;;42.63;20.48;;;7.80;99.90;;;;;;5064080;28;20525;-78
2022/05/06 03:24:12;;;;;;;39.03;21.17;;;7.80;99.90;;;;;;5048634;28;20224;-79
2022/05/06 03:26:37;;;;;;;49.95;23.60;;;7.80;99.90;;;;;;5047204;28;20040;-78
2022/05/06 03:29:03;;;;;;;62.63;26.80;;;7.80;99.90;;;;;;5031298;28;20043;-78
2022/05/06 03:31:29;;;;;;;58.40;24.25;;;8.20;99.90;;;;;;5065510;28;20110;-78
2022/05/06 03:33:55;;;;;;;57.97;24.58;;;8.70;99.90;;;;;;5047247;28;20109;-79
2022/05/06 03:36:21;;;;;;;55.03;25.77;;;8.20;99.90;;;;;;5048626;28;20110;-79
2022/05/06 03:38:47;;;;;;;63.58;26.48;;;8.20;99.90;;;;;;5047679;28;20400;-79
2022/05/06 03:41:13;;;;;;;60.47;24.08;;;8.30;99.90;;;;;;5066858;28;20049;-79
2022/05/06 03:43:40;;;;;;;56.45;23.92;;;8.40;99.90;;;;;;5032467;28;20076;-79
2022/05/06 03:46:06;;;;;;;55.20;24.13;;;8.50;99.90;;;;;;5031809;28;20504;-79
2022/05/06 03:48:34;;;;;;;83.03;26.48;;;9.40;99.90;;;;;;5065688;28;20098;-79
2022/05/06 03:53:44;;;;;;;109.60;23.40;;;8.70;99.90;;;;;;5050304;28;20064;-79
2022/05/06 03:56:10;;;;;;;72.47;22.95;;;8.80;99.90;;;;;;5046715;28;20129;-79
2022/05/06 03:58:36;;;;;;;60.75;22.65;;;8.80;99.90;;;;;;5065568;28;20032;-79
2022/05/06 04:01:04;;;;;;;122.30;24.13;;;9.20;99.90;;;;;;5063457;28;20044;-79
2022/05/06 04:03:30;;;;;;;51.08;24.38;;;8.80;99.90;;;;;;5063522;28;20067;-79
2022/05/06 04:05:57;;;;;;;75.38;23.00;;;8.80;99.90;;;;;;5047424;28;20548;-79
2022/05/06 04:08:23;;;;;;;47.70;22.02;;;8.90;99.90;;;;;;5063340;28;20400;-79
2022/05/06 04:10:49;;;;;;;56.80;24.40;;;8.90;99.90;;;;;;5047908;28;20480;-79
2022/05/06 04:13:19;;;;;;;53.55;25.17;;;9.00;99.90;;;;;;5063903;28;20099;-79
2022/05/06 04:15:46;;;;;;;125.38;25.98;;;9.00;99.90;;;;;;5064177;28;20040;-79
2022/05/06 04:18:12;;;;;;;91.18;24.88;;;9.00;99.90;;;;;;5065188;28;20066;-79
2022/05/06 04:23:32;;;;;;;225.30;29.42;;;10.20;99.90;;;;;;5050700;28;20044;-79
2022/05/06 04:26:00;;;;;;;96.68;25.52;;;9.10;99.90;;;;;;5046032;28;20033;-79
2022/05/06 04:28:27;;;;;;;75.65;24.45;;;9.80;99.90;;;;;;5069267;28;20043;-79
2022/05/06 04:30:53;;;;;;;81.82;25.98;;;9.10;99.90;;;;;;5067724;28;20080;-79
2022/05/06 04:33:26;;;;;;;51.30;25.75;;;9.40;99.90;;;;;;5050754;28;20414;-79
2022/05/06 04:35:53;;;;;;;;;;;9.50;99.90;;;;;;5068232;28;20050;-80
2022/05/06 04:38:19;;;;;;;75.15;27.00;;;9.20;99.90;;;;;;5068288;28;20062;-79
2022/05/06 04:40:45;;;;;;;58.38;27.45;;;9.90;99.90;;;;;;5069117;28;20099;-79
2022/05/06 04:43:11;;;;;;;59.45;26.67;;;9.30;99.90;;;;;;5068292;28;20041;-79
2022/05/06 04:45:38;;;;;;;64.75;27.55;;;9.30;99.90;;;;;;5069438;28;20123;-79
2022/05/06 04:48:06;;;;;;;66.55;26.42;;;9.30;99.90;;;;;;5066826;28;20041;-80
2022/05/06 04:50:36;;;;;;;60.80;25.63;;;9.30;99.90;;;;;;5066762;28;20044;-79
2022/05/06 04:53:02;;;;;;;51.95;25.65;;;9.40;99.90;;;;;;5069019;28;20056;-79
2022/05/06 04:55:28;;;;;;;57.28;27.50;;;9.80;99.90;;;;;;5066258;28;20131;-79
2022/05/06 04:57:54;;;;;;;58.67;27.85;;;9.50;99.90;;;;;;5069078;28;20123;-79
2022/05/06 05:00:21;;;;;;;51.53;25.67;;;9.50;99.90;;;;;;5066565;28;20144;-79
2022/05/06 05:02:48;;;;;;;52.63;24.45;;;9.60;99.90;;;;;;5066941;28;20051;-79
2022/05/06 05:05:13;;;;;;;51.72;24.38;;;9.60;99.90;;;;;;5066757;28;20385;-79
2022/05/06 05:07:40;;;;;;;44.35;23.67;;;9.60;99.90;;;;;;5067871;28;20083;-78
2022/05/06 05:10:07;;;;;;;50.42;23.95;;;9.70;99.90;;;;;;5067220;28;20127;-78
2022/05/06 05:12:34;;;;;;;41.88;21.63;;;9.70;99.90;;;;;;5067614;28;20044;-78
2022/05/06 05:15:00;;;;;;;42.13;22.95;;;9.70;99.90;;;;;;5067595;28;20102;-78
2022/05/06 05:17:26;;;;;;;40.90;22.00;;;10.40;99.90;;;;;;5067750;28;20125;-78
2022/05/06 05:19:52;;;;;;;39.55;20.35;;;9.70;99.90;;;;;;5068195;28;20044;-78
2022/05/06 05:22:18;;;;;;;41.20;18.10;;;9.70;99.90;;;;;;5066133;28;20048;-79
2022/05/06 05:24:44;;;;;;;42.40;17.20;;;9.70;99.90;;;;;;5067673;28;20044;-78
2022/05/06 05:27:10;;;;;;;29.98;17.27;;;9.70;99.90;;;;;;5068183;28;20040;-79
2022/05/06 05:29:36;;;;;;;41.35;18.10;;;9.70;99.90;;;;;;5067242;28;20047;-79
2022/05/06 05:32:02;;;;;;;50.95;19.00;;;9.80;99.90;;;;;;5068326;28;20126;-79
2022/05/06 05:34:28;;;;;;;38.95;18.30;;;9.80;99.90;;;;;;5065718;28;20106;-79
2022/05/06 05:36:53;;;;;;;33.13;17.98;;;9.90;99.90;;;;;;5068224;28;20036;-79
2022/05/06 05:39:19;;;;;;;32.80;17.98;;;11.10;99.90;;;;;;5065637;28;20086;-78
2022/05/06 05:41:45;;;;;;;37.60;18.92;;;10.00;99.90;;;;;;5032822;28;20127;-79
2022/05/06 05:49:40;;;;;;;38.90;20.23;;;10.90;99.90;;;;;;5068029;28;20059;-77
2022/05/06 05:52:06;;;;;;;36.75;19.63;;;10.20;99.90;;;;;;5065560;28;20041;-78
2022/05/06 05:54:32;;;;;;;35.90;20.00;;;10.20;99.90;;;;;;5064505;28;20106;-78
2022/05/06 05:56:57;;;;;;;37.85;21.42;;;10.30;99.90;;;;;;5067742;28;20107;-77
2022/05/06 05:59:24;;;;;;;38.95;20.70;;;10.40;99.90;;;;;;5066736;28;20040;-78
2022/05/06 06:01:49;;;;;;;43.50;23.20;;;10.40;99.90;;;;;;5050591;28;20048;-78
2022/05/06 06:04:16;;;;;;;34.67;18.83;;;10.90;99.90;;;;;;5066610;28;20074;-78
2022/05/06 06:06:42;;;;;;;39.85;22.50;;;11.70;99.90;;;;;;5049667;28;20106;-78
2022/05/06 06:09:08;;;;;;;43.20;21.77;;;10.50;99.90;;;;;;5065562;28;20056;-78
2022/05/06 06:11:35;;;;;;;38.33;21.38;;;10.50;99.90;;;;;;5049320;28;20395;-79
2022/05/06 06:14:02;;;;;;;38.03;21.60;;;11.20;99.90;;;;;;5049679;28;20055;-78
2022/05/06 06:16:28;;;;;;;44.55;23.77;;;11.50;99.90;;;;;;5066055;28;20487;-79
2022/05/06 06:18:58;;;;;;;37.05;21.08;;;10.60;99.90;;;;;;5049445;28;20094;-79
2022/05/06 06:21:25;;;;;;;35.78;20.35;;;11.50;99.90;;;;;;5031818;28;20055;-79
2022/05/06 06:23:50;;;;;;;44.42;23.98;;;11.90;99.90;;;;;;5066923;28;20496;-78
2022/05/06 06:26:16;;;;;;;44.78;21.58;;;11.50;99.90;;;;;;5066743;28;20051;-78
2022/05/06 06:28:41;;;;;;;41.88;22.42;;;10.70;99.90;;;;;;5065292;28;20052;-78
2022/05/06 06:31:07;;;;;;;48.08;22.95;;;11.50;99.90;;;;;;5065906;28;20479;-78
2022/05/06 06:33:37;;;;;;;46.42;22.83;;;10.70;99.90;;;;;;5048352;28;20048;-78
2022/05/06 06:36:04;;;;;;;46.83;22.98;;;10.90;99.90;;;;;;5049144;28;20131;-79
2022/05/06 06:38:31;;;;;;;47.78;22.92;;;11.00;99.90;;;;;;5048083;28;20127;-80
2022/05/06 06:40:56;;;;;;;43.80;22.55;;;11.20;99.90;;;;;;5048828;28;20169;-79
2022/05/06 06:43:22;;;;;;;42.22;21.52;;;11.40;99.90;;;;;;5048336;28;20119;-79
2022/05/06 06:45:48;;;;;;;37.85;21.08;;;11.50;99.90;;;;;;5066339;28;20084;-78
2022/05/06 06:48:13;;;;;;;38.28;20.83;;;12.20;99.90;;;;;;5065170;28;20055;-78
2022/05/06 06:50:39;;;;;;;35.03;19.50;;;12.30;99.90;;;;;;5063412;28;20148;-79
2022/05/06 06:53:05;;;;;;;35.85;20.58;;;11.70;99.90;;;;;;5048593;28;20128;-78
2022/05/06 06:55:31;;;;;;;35.28;19.15;;;11.60;99.90;;;;;;5064007;28;20087;-78
2022/05/06 06:57:57;;;;;;;35.38;19.98;;;11.70;99.90;;;;;;5065118;28;20145;-78
2022/05/06 07:00:23;;;;;;;31.23;18.80;;;12.90;99.90;;;;;;5064304;28;20113;-78
2022/05/06 07:02:49;;;;;;;30.20;18.35;;;11.80;99.90;;;;;;5047651;28;20045;-79
2022/05/06 07:05:15;;;;;;;34.53;19.67;;;12.20;99.90;;;;;;5065014;28;20128;-78
2022/05/06 07:13:11;;;;;;;28.65;17.55;;;12.20;99.90;;;;;;5050081;28;20521;-79
2022/05/06 07:15:36;;;;;;;31.67;18.50;;;12.40;99.90;;;;;;5047413;28;20694;-79
2022/05/06 07:18:02;;;;;;;22.58;15.07;;;12.40;99.90;;;;;;5064076;28;20327;-78
2022/05/06 07:20:28;;;;;;;21.67;13.77;;;12.50;99.90;;;;;;5062462;28;20103;-79
2022/05/06 07:22:54;;;;;;;18.75;12.68;;;12.50;99.90;;;;;;5030545;28;20404;-80
2022/05/06 07:25:20;;;;;;;21.92;13.35;;;12.60;99.90;;;;;;5064327;28;20109;-79
2022/05/06 07:27:46;;;;;;;18.23;11.98;;;12.60;99.90;;;;;;5066144;28;20036;-79
2022/05/06 07:30:12;;;;;;;17.30;11.73;;;12.70;99.90;;;;;;5065437;28;20045;-79
2022/05/06 07:32:37;;;;;;;18.45;12.88;;;12.80;99.90;;;;;;5065385;28;20063;-78
2022/05/06 07:35:04;;;;;;;20.75;13.20;;;12.80;99.90;;;;;;5065568;28;20051;-79
2022/05/06 07:37:33;;;;;;;17.42;11.45;;;12.80;99.90;;;;;;5063137;28;20045;-78
2022/05/06 07:40:03;;;;;;;14.60;10.68;;;12.90;99.90;;;;;;5064895;28;20131;-78
2022/05/06 07:42:30;;;;;;;15.73;10.98;;;13.00;99.90;;;;;;5063883;28;20377;-78
2022/05/06 07:44:59;;;;;;;14.35;9.75;;;13.00;99.90;;;;;;5046675;28;20500;-78
2022/05/06 07:47:25;;;;;;;17.55;11.57;;;13.00;99.90;;;;;;5030276;28;20400;-78
2022/05/06 07:49:54;;;;;;;16.85;11.15;;;13.10;99.90;;;;;;5046726;28;20137;-80
2022/05/06 07:52:19;;;;;;;14.68;10.38;;;13.20;99.90;;;;;;5065155;28;20087;-77
2022/05/06 07:54:45;;;;;;;15.75;10.80;;;14.10;99.90;;;;;;5063701;28;20117;-78
2022/05/06 07:57:11;;;;;;;15.15;10.25;;;13.30;99.90;;;;;;5065785;28;20039;-77
2022/05/06 07:59:37;;;;;;;15.95;10.23;;;13.50;99.90;;;;;;5064517;28;20527;-78
2022/05/06 08:04:48;;;;;;;14.10;9.23;;;13.60;99.90;;;;;;5068519;28;20134;-77
2022/05/06 08:07:15;;;;;;;12.90;8.98;;;13.70;99.90;;;;;;5067140;28;20040;-78
2022/05/06 08:09:41;;;;;;;12.50;7.90;;;13.90;99.90;;;;;;5068142;28;20048;-77
2022/05/06 08:12:08;;;;;;;10.70;7.55;;;14.00;99.90;;;;;;5068071;28;20048;-77
2022/05/06 08:14:34;;;;;;;9.40;6.85;;;14.00;99.90;;;;;;5069174;28;20377;-78
2022/05/06 08:17:01;;;;;;;9.75;7.38;;;14.10;99.90;;;;;;5066622;28;20101;-77
2022/05/06 08:19:27;;;;;;;10.38;7.07;;;14.20;99.90;;;;;;5068631;28;20052;-79
2022/05/06 08:21:52;;;;;;;8.90;6.63;;;14.40;99.90;;;;;;5068244;28;20044;-78
2022/05/06 08:24:19;;;;;;;7.47;5.68;;;14.50;99.90;;;;;;5067917;28;20159;-78
2022/05/06 08:26:46;;;;;;;7.40;5.70;;;14.90;99.90;;;;;;5069052;28;20131;-79
2022/05/06 08:29:12;;;;;;;8.15;6.05;;;14.80;99.90;;;;;;5066342;28;20080;-77
2022/05/06 08:31:37;;;;;;;8.68;6.50;;;14.90;99.90;;;;;;5050342;28;20056;-78
2022/05/06 08:34:08;;;;;;;9.65;6.53;;;14.90;99.90;;;;;;5049596;28;20209;-79
2022/05/06 08:36:40;;;;;;;9.18;5.90;;;15.00;99.90;;;;;;5068891;28;20044;-79
2022/05/06 08:39:07;;;;;;;7.82;6.20;;;15.10;99.90;;;;;;5068352;28;20048;-78
2022/05/06 08:41:35;;;;;;;9.88;6.68;;;15.20;99.90;;;;;;5067970;28;20040;-78
2022/05/06 08:50:50;;;;;;;10.45;7.07;;;15.50;99.90;;;;;;5068668;28;20051;-78
2022/05/06 08:52:34;;;;;;;12.88;7.07;;;15.70;99.90;;;;;;5052096;28;20056;-78
2022/05/06 08:55:05;;;;;;;9.23;7.13;;;15.70;99.90;;;;;;5065904;28;20079;-76
2022/05/06 08:57:31;;;;;;;11.95;6.43;;;15.90;99.90;;;;;;5067773;28;20048;-77
2022/05/06 08:59:57;;;;;;;7.05;5.50;;;16.10;99.90;;;;;;5068295;28;20127;-77
2022/05/06 09:02:23;;;;;;;9.50;5.57;;;16.30;99.90;;;;;;5067839;28;20496;-77
2022/05/06 09:04:49;;;;;;;8.20;4.95;;;16.30;99.90;;;;;;5050205;28;20048;-78
2022/05/06 09:07:19;;;;;;;7.90;5.28;;;16.40;99.90;;;;;;5066606;28;20135;-77
2022/05/06 09:10:13;;;;;;;6.43;5.05;;;16.40;99.90;;;;;;5067626;28;20044;-77
2022/05/06 09:12:46;;;;;;;5.90;4.47;;;16.50;99.90;;;;;;5067061;28;20503;-77
2022/05/06 09:17:59;;;;;;;5.15;3.78;;;16.70;99.90;;;;;;5069028;28;20044;-77
2022/05/06 09:20:27;;;;;;;6.38;3.72;;;16.80;99.90;;;;;;5050721;28;20082;-77
2022/05/06 09:22:53;;;;;;;4.43;3.40;;;17.00;99.90;;;;;;5069197;28;20447;-78
2022/05/06 09:25:36;;;;;;;4.50;3.45;;;16.80;99.90;;;;;;5049841;28;20047;-78
2022/05/06 09:28:03;;;;;;;4.00;3.08;;;16.90;99.90;;;;;;5066985;28;20232;-78
2022/05/06 09:30:29;;;;;;;4.65;3.55;;;17.00;99.90;;;;;;5068499;28;20498;-78
2022/05/06 09:32:55;;;;;;;4.40;3.88;;;17.10;99.90;;;;;;5066659;28;20055;-78
2022/05/06 09:35:26;;;;;;;5.07;3.85;;;17.20;99.90;;;;;;5067459;28;20040;-78
2022/05/06 09:37:52;;;;;;;8.25;4.07;;;17.40;99.90;;;;;;5066592;28;20561;-78
2022/05/06 09:40:28;;;;;;;7.07;3.78;;;17.60;99.90;;;;;;5068811;28;20094;-78
2022/05/06 09:42:53;;;;;;;4.47;3.58;;;17.80;99.90;;;;;;5068132;28;20036;-78
2022/05/06 09:45:28;;;;;;;5.07;3.40;;;18.00;99.90;;;;;;5068027;28;20468;-78
2022/05/06 09:48:01;;;;;;;4.65;3.55;;;18.10;99.90;;;;;;5066946;28;20056;-78
2022/05/06 09:50:46;;;;;;;;;;;18.40;99.90;;;;;;5066498;28;20412;-78
2022/05/06 09:53:13;;;;;;;3.40;2.78;;;18.50;99.90;;;;;;5068099;28;19947;-79
2022/05/06 09:55:46;;;;;;;5.07;2.80;;;18.60;99.90;;;;;;5066563;28;20044;-78
2022/05/06 09:58:13;;;;;;;3.80;2.88;;;18.70;99.90;;;;;;5066245;28;20486;-78
2022/05/06 10:00:39;;;;;;;4.20;3.28;;;18.80;99.90;;;;;;5066913;28;20122;-78
2022/05/06 10:03:06;;;;;;;4.15;3.25;;;18.90;99.90;;;;;;5065260;28;20511;-77
2022/05/06 10:05:36;;;;;;;6.38;2.70;;;18.90;99.90;;;;;;5068164;28;20051;-75
2022/05/06 10:08:06;;;;;;;3.38;3.08;;;18.90;99.90;;;;;;5066847;28;20090;-75
2022/05/06 10:10:38;;;;;;;6.47;3.20;;;18.90;99.90;;;;;;5067257;28;20483;-76
2022/05/06 10:13:14;;;;;;;4.05;3.65;;;18.90;99.90;;;;;;5049761;28;20053;-75
2022/05/06 10:15:40;;;;;;;6.18;3.72;;;18.80;99.90;;;;;;5065107;28;20119;-74
2022/05/06 10:18:07;;;;;;;4.60;3.65;;;18.80;99.90;;;;;;5067328;28;20125;-76
2022/05/06 10:20:41;;;;;;;5.75;3.63;;;19.00;99.90;;;;;;5047807;28;20044;-75
2022/05/06 10:23:11;;;;;;;4.13;3.17;;;19.10;99.90;;;;;;5065858;28;20044;-75
2022/05/06 10:25:40;;;;;;;4.63;3.67;;;19.30;99.90;;;;;;5048502;28;20500;-74
2022/05/06 10:34:09;;;;;;;3.60;2.70;;;19.50;99.90;;;;;;5065261;28;20519;-74
2022/05/06 10:36:42;;;;;;;4.68;2.97;;;19.80;99.90;;;;;;5065040;28;20053;-74
2022/05/06 10:39:41;;;;;;;5.57;2.88;;;20.00;98.60;;;;;;5065649;28;20530;-73
2022/05/06 10:42:11;;;;;;;5.72;2.95;;;20.20;97.20;;;;;;5065072;28;20620;-73
2022/05/06 10:44:38;;;;;;;4.95;2.50;;;20.30;99.90;;;;;;5066846;28;20083;-73
2022/05/06 10:47:16;;;;;;;3.00;2.47;;;20.40;99.90;;;;;;5066586;28;20091;-74
2022/05/06 10:49:43;;;;;;;4.43;2.70;;;20.40;96.50;;;;;;5065117;28;20221;-74
2022/05/06 10:52:33;;;;;;;4.10;2.35;;;20.30;98.90;;;;;;5049311;28;20106;-74
2022/05/06 10:55:03;;;;;;;2.55;2.13;;;20.50;96.30;;;;;;5064574;28;20060;-74
2022/05/06 10:57:53;;;;;;;3.08;2.50;;;20.50;96.70;;;;;;5065361;28;20051;-76
2022/05/06 11:00:21;;;;;;;16.95;3.55;;;20.50;96.80;;;;;;5048194;28;20053;-74
2022/05/06 11:02:47;;;;;;;6.72;2.08;;;20.60;97.80;;;;;;5064832;28;20572;-74
2022/05/06 11:05:15;;;;;;;3.55;2.33;;;20.60;96.80;;;;;;5049164;28;20090;-74
2022/05/06 11:07:43;;;;;;;3.05;2.00;;;20.80;96.20;;;;;;5066167;28;20060;-73
2022/05/06 11:10:10;;;;;;;1.95;1.75;;;21.00;96.10;;;;;;5065099;28;20040;-73
2022/05/06 11:12:57;;;;;;;3.70;1.83;;;21.10;94.70;;;;;;5066472;28;20494;-74
2022/05/06 11:15:32;;;;;;;2.08;1.65;;;21.50;91.50;;;;;;5065805;28;20099;-75
2022/05/06 11:18:00;;;;;;;2.80;1.80;;;21.60;92.80;;;;;;5065305;28;20048;-74
2022/05/06 11:20:28;;;;;;;2.20;1.92;;;21.60;92.10;;;;;;5047828;28;20166;-74
2022/05/06 11:23:06;;;;;;;5.10;1.70;;;21.70;91.40;;;;;;5064879;28;20044;-74
2022/05/06 11:25:34;;;;;;;3.03;1.77;;;21.70;92.10;;;;;;5047932;28;20174;-73
2022/05/06 11:28:03;;;;;;;2.00;1.27;;;21.80;90.20;;;;;;5064550;28;20048;-74
2022/05/06 11:30:30;;;;;;;2.15;1.35;;;21.80;90.10;;;;;;5065113;28;20487;-73
2022/05/06 11:32:58;;;;;;;2.88;1.70;;;22.50;88.00;;;;;;5064406;28;20863;-74
2022/05/06 11:35:30;;;;;;;5.13;1.80;;;21.80;87.40;;;;;;5066366;28;20041;-73
2022/05/06 11:37:56;;;;;;;2.15;1.55;;;21.80;85.90;;;;;;5065865;28;20435;-75
2022/05/06 11:42:53;;;;;;;1.77;1.40;;;21.90;87.40;;;;;;5064507;28;20377;-73
2022/05/06 11:48:07;;;;;;;2.22;1.33;;;22.30;83.20;;;;;;5064807;28;20047;-73
2022/05/06 11:50:37;;;;;;;1.63;1.52;;;22.30;81.40;;;;;;5064109;28;20044;-73
2022/05/06 11:53:13;;;;;;;2.88;1.10;;;22.40;81.60;;;;;;5064817;28;20407;-73
2022/05/06 11:55:42;;;;;;;3.25;1.38;;;22.20;82.60;;;;;;5064309;28;20488;-72
2022/05/06 11:58:12;;;;;;;1.50;1.15;;;22.20;82.90;;;;;;5047654;28;20127;-76
2022/05/06 12:00:38;;;;;;;2.85;1.48;;;22.30;82.70;;;;;;5064701;28;20045;-74
2022/05/06 12:03:06;;;;;;;1.92;1.13;;;22.60;81.20;;;;;;5063933;28;20049;-74
2022/05/06 12:05:36;;;;;;;1.90;1.27;;;22.80;79.30;;;;;;5064606;28;20059;-74
2022/05/06 12:08:02;;;;;;;2.55;1.13;;;22.80;76.60;;;;;;5031446;28;20335;-74
2022/05/06 12:10:30;;;;;;;3.70;1.77;;;23.00;78.70;;;;;;5063739;28;20073;-75
2022/05/06 12:13:29;;;;;;;2.50;1.25;;;23.20;76.80;;;;;;5065836;28;20049;-74
2022/05/06 12:16:10;;;;;;;2.22;1.60;;;23.30;71.80;;;;;;5065559;28;20513;-75
2022/05/06 12:18:37;;;;;;;2.13;1.40;;;23.30;71.70;;;;;;5065983;28;20045;-75
2022/05/06 12:21:26;;;;;;;2.70;1.60;;;23.40;76.40;;;;;;5065327;28;20087;-74
2022/05/06 12:24:02;;;;;;;1.30;1.02;;;23.90;71.30;;;;;;5063989;28;20048;-75
2022/05/06 12:26:37;;;;;;;3.20;1.17;;;23.50;75.40;;;;;;5066098;28;20083;-74
2022/05/06 12:29:24;;;;;;;2.33;1.33;;;23.60;75.60;;;;;;5065382;28;20044;-74
2022/05/06 12:32:01;;;;;;;1.50;1.00;;;23.80;72.80;;;;;;5064865;28;20056;-74
2022/05/06 12:34:31;;;;;;;1.75;0.77;;;24.10;69.40;;;;;;5065771;28;20946;-74
2022/05/06 12:37:16;;;;;;;2.15;1.00;;;24.30;68.00;;;;;;5065400;28;20044;-75
2022/05/06 12:39:48;;;;;;;2.40;1.27;;;24.40;64.20;;;;;;5065993;28;20411;-74
2022/05/06 12:42:18;;;;;;;1.63;1.30;;;24.40;65.20;;;;;;5065353;28;20036;-74
2022/05/06 12:44:45;;;;;;;2.63;1.50;;;24.30;63.70;;;;;;5065276;28;20048;-75
2022/05/06 12:50:05;;;;;;;1.35;1.08;;;23.80;62.30;;;;;;5068619;28;20127;-73
2022/05/06 12:52:35;;;;;;;1.83;1.17;;;23.80;66.40;;;;;;5069099;28;20032;-74
2022/05/06 12:55:02;;;;;;;0.98;0.88;;;23.90;65.70;;;;;;5068315;28;20059;-75
2022/05/06 12:57:28;;;;;;;2.42;0.70;;;23.80;65.20;;;;;;5050627;28;20068;-74
2022/05/06 12:59:54;;;;;;;2.17;1.00;;;23.80;66.10;;;;;;5067636;28;20083;-74
2022/05/06 13:02:20;;;;;;;2.50;1.23;;;23.90;65.00;;;;;;5067372;28;20403;-74
2022/05/06 13:04:49;;;;;;;2.95;1.25;;;24.00;65.30;;;;;;5068110;28;20052;-75
2022/05/06 13:07:15;;;;;;;3.58;1.15;;;24.20;64.00;;;;;;5067052;28;20201;-75
2022/05/06 13:09:42;;;;;;;3.17;1.33;;;24.30;63.40;;;;;;5068810;28;20084;-76
2022/05/06 13:12:09;;;;;;;3.20;1.60;;;24.50;63.40;;;;;;5068581;28;20050;-76
2022/05/06 13:14:35;;;;;;;3.05;1.70;;;24.80;62.10;;;;;;5068039;28;20048;-75
2022/05/06 13:17:01;;;;;;;2.63;2.00;;;25.00;61.50;;;;;;5050452;28;20124;-74
2022/05/06 13:19:29;;;;;;;1.95;1.70;;;25.10;60.10;;;;;;5067881;28;20124;-75
2022/05/06 13:21:55;;;;;;;2.65;1.40;;;25.00;59.40;;;;;;5068951;28;20128;-76
2022/05/06 13:24:23;;;;;;;2.20;1.58;;;24.70;59.40;;;;;;5067054;28;20086;-75
2022/05/06 13:26:49;;;;;;;4.85;1.33;;;24.50;59.50;;;;;;5068446;28;20075;-76
2022/05/06 13:29:14;;;;;;;2.88;1.80;;;24.50;59.20;;;;;;5067083;28;20040;-76
2022/05/06 13:31:40;;;;;;;5.30;1.92;;;24.40;59.40;;;;;;5050006;28;20399;-75